Time;durP1;ratioP1;P1;durP2;ratioP2;P2;SDS_P1;SDS_P2;PMS_P1;PMS_P2;Temp;Humidity;BMP_temperature;BMP_pressure;BME280_temperature;BME280_humidity;BME280_pressure;Samples;Min_cycle;Max_cycle;Signal;HPM_P1;HPM_P2
2021/08/10 00:01:45;;;;;;;6.40;3.92;;;16.50;91.90;;;;;;5057852;28;20037;-77
2021/08/10 00:04:11;;;;;;;8.07;5.05;;;16.50;91.90;;;;;;5074336;28;20076;-79
2021/08/10 00:06:37;;;;;;;9.10;4.88;;;16.40;92.00;;;;;;5059336;28;20377;-78
2021/08/10 00:09:03;;;;;;;9.02;4.63;;;16.50;92.00;;;;;;5055801;28;20084;-77
2021/08/10 00:11:28;;;;;;;8.93;4.13;;;16.40;92.00;;;;;;5037886;28;20040;-78
2021/08/10 00:13:54;;;;;;;7.05;4.53;;;16.40;91.90;;;;;;5038195;28;20447;-77
2021/08/10 00:16:19;;;;;;;9.15;4.70;;;16.40;91.90;;;;;;5038295;28;20021;-77
2021/08/10 00:18:45;;;;;;;6.93;4.50;;;16.40;91.90;;;;;;5037980;28;20017;-78
2021/08/10 00:21:11;;;;;;;7.18;4.88;;;16.40;91.90;;;;;;5055794;28;20040;-77
2021/08/10 00:23:36;;;;;;;9.90;3.85;;;16.40;91.90;;;;;;5038250;28;20078;-77
2021/08/10 00:26:02;;;;;;;9.90;4.68;;;16.30;91.90;;;;;;5037729;28;20114;-77
2021/08/10 00:28:27;;;;;;;7.00;3.90;;;16.40;91.90;;;;;;5037757;28;20073;-77
2021/08/10 00:30:53;;;;;;;8.25;4.95;;;16.30;91.90;;;;;;5055588;28;20694;-78
2021/08/10 00:33:18;;;;;;;7.60;4.55;;;16.30;91.90;;;;;;5055103;28;20492;-77
2021/08/10 00:35:44;;;;;;;8.00;4.53;;;16.30;92.00;;;;;;5055207;28;20104;-77
2021/08/10 00:38:10;;;;;;;6.35;4.68;;;16.30;92.00;;;;;;5037290;28;20531;-78
2021/08/10 00:40:37;;;;;;;8.95;4.43;;;16.20;91.90;;;;;;5055095;28;20120;-78
2021/08/10 00:43:03;;;;;;;7.05;4.47;;;16.20;91.90;;;;;;5055310;28;20044;-78
2021/08/10 00:45:28;;;;;;;8.23;4.78;;;16.20;91.90;;;;;;5037804;28;20025;-77
2021/08/10 00:47:54;;;;;;;7.78;4.35;;;16.20;91.90;;;;;;5055047;28;20108;-77
2021/08/10 00:50:20;;;;;;;8.90;4.95;;;16.20;92.00;;;;;;5036894;28;20033;-78
2021/08/10 00:52:46;;;;;;;9.10;4.78;;;16.20;92.00;;;;;;5037715;28;20461;-78
2021/08/10 00:55:12;;;;;;;8.07;4.80;;;16.10;92.00;;;;;;5054708;28;20048;-78
2021/08/10 00:57:38;;;;;;;7.78;4.35;;;16.10;92.10;;;;;;5037202;28;20377;-78
2021/08/10 01:00:07;;;;;;;11.75;5.25;;;16.10;92.10;;;;;;5054907;28;20032;-76
2021/08/10 01:02:33;;;;;;;7.20;4.85;;;16.10;92.10;;;;;;5054898;28;20029;-77
2021/08/10 01:04:59;;;;;;;7.35;4.35;;;16.10;92.10;;;;;;5037270;28;20037;-77
2021/08/10 01:07:47;;;;;;;8.57;5.10;;;16.10;92.20;;;;;;5054526;28;20032;-77
2021/08/10 01:10:23;;;;;;;8.23;5.45;;;16.10;92.20;;;;;;5036492;28;20029;-76
2021/08/10 01:12:59;;;;;;;9.32;4.72;;;16.00;92.20;;;;;;5055001;28;20021;-77
2021/08/10 01:15:34;;;;;;;9.00;5.25;;;16.00;92.20;;;;;;5036857;28;20029;-77
2021/08/10 01:18:15;;;;;;;8.70;4.90;;;16.00;92.30;;;;;;5054870;28;20095;-77
2021/08/10 01:21:08;;;;;;;7.85;4.40;;;16.00;92.30;;;;;;5040106;28;20536;-77
2021/08/10 01:23:35;;;;;;;10.40;5.57;;;16.00;92.30;;;;;;5067134;28;20024;-78
2021/08/10 01:26:06;;;;;;;9.63;5.63;;;16.00;92.30;;;;;;5055539;28;20035;-77
2021/08/10 01:28:49;;;;;;;13.48;5.50;;;16.00;92.40;;;;;;5065064;28;20164;-78
2021/08/10 01:31:42;;;;;;;10.10;6.13;;;16.00;92.40;;;;;;5054983;28;20021;-76
2021/08/10 01:34:26;;;;;;;9.23;4.90;;;16.00;92.40;;;;;;5033793;28;20029;-77
2021/08/10 01:36:56;;;;;;;11.15;4.60;;;16.00;92.30;;;;;;5036984;28;20032;-77
2021/08/10 01:39:26;;;;;;;6.65;4.25;;;16.00;92.40;;;;;;5036736;28;20389;-78
2021/08/10 01:41:52;;;;;;;;;;;16.00;92.40;;;;;;5054977;28;20033;-78
2021/08/10 01:44:25;;;;;;;8.60;5.00;;;15.90;92.40;;;;;;5046557;28;19905;-79
2021/08/10 01:46:51;;;;;;;8.02;4.78;;;16.00;92.40;;;;;;5054281;28;20116;-77
2021/08/10 01:49:17;;;;;;;8.38;5.25;;;15.90;92.40;;;;;;5045515;28;20017;-77
2021/08/10 01:51:46;;;;;;;9.35;6.50;;;15.90;92.40;;;;;;5053908;28;20490;-77
2021/08/10 01:54:13;;;;;;;10.77;6.22;;;15.90;92.40;;;;;;5054139;28;20021;-77
2021/08/10 01:56:40;;;;;;;11.38;6.03;;;15.90;92.50;;;;;;5054373;28;20052;-77
2021/08/10 01:59:07;;;;;;;10.63;7.03;;;15.90;92.60;;;;;;5054404;28;20063;-77
2021/08/10 02:01:34;;;;;;;9.82;6.20;;;15.90;92.60;;;;;;5036340;28;20053;-78
2021/08/10 02:04:00;;;;;;;7.10;5.43;;;16.00;92.60;;;;;;5043621;28;20033;-77
2021/08/10 02:06:28;;;;;;;8.20;5.82;;;15.90;92.60;;;;;;5063169;28;20045;-77
2021/08/10 02:08:54;;;;;;;10.20;5.40;;;15.90;92.60;;;;;;5054810;28;20025;-78
2021/08/10 02:11:25;;;;;;;11.27;5.80;;;15.90;92.60;;;;;;5053402;28;20424;-78
2021/08/10 02:13:53;;;;;;;9.00;5.47;;;16.00;92.90;;;;;;5050080;28;20036;-78
2021/08/10 02:16:19;;;;;;;13.48;6.28;;;16.00;92.60;;;;;;5049103;28;20473;-77
2021/08/10 02:18:46;;;;;;;11.38;5.80;;;16.00;92.60;;;;;;5042257;28;20079;-77
2021/08/10 02:21:24;;;;;;;8.27;5.35;;;15.90;92.60;;;;;;5048733;28;20462;-78
2021/08/10 02:24:12;;;;;;;11.38;6.63;;;15.90;92.60;;;;;;5043319;28;20108;-77
2021/08/10 02:26:49;;;;;;;11.10;6.10;;;16.00;92.60;;;;;;5032334;28;20040;-78
2021/08/10 02:29:17;;;;;;;8.77;5.63;;;15.90;92.60;;;;;;5033596;28;20055;-77
2021/08/10 02:31:44;;;;;;;11.30;6.13;;;15.90;92.60;;;;;;5029011;28;20021;-77
2021/08/10 02:34:10;;;;;;;8.93;4.97;;;15.90;92.60;;;;;;5053204;28;20071;-78
2021/08/10 02:36:37;;;;;;;11.38;5.38;;;15.90;92.50;;;;;;5035546;28;20053;-78
2021/08/10 02:39:06;;;;;;;8.43;5.63;;;16.00;92.50;;;;;;5035461;28;20025;-76
2021/08/10 02:41:34;;;;;;;11.32;6.25;;;15.90;92.60;;;;;;5035143;28;20029;-77
2021/08/10 02:44:01;;;;;;;10.75;5.78;;;15.90;92.50;;;;;;5053015;28;20032;-78
2021/08/10 02:46:28;;;;;;;9.77;5.47;;;15.90;92.50;;;;;;5035077;28;20021;-78
2021/08/10 02:48:53;;;;;;;11.93;6.43;;;15.90;92.60;;;;;;5053201;28;20049;-76
2021/08/10 02:51:19;;;;;;;10.93;7.13;;;15.90;92.60;;;;;;5052987;28;20512;-77
2021/08/10 02:53:45;;;;;;;8.60;5.40;;;15.90;92.60;;;;;;5053028;28;20488;-78
2021/08/10 02:56:19;;;;;;;11.73;6.47;;;15.80;92.60;;;;;;5035568;28;20048;-78
2021/08/10 02:58:52;;;;;;;10.20;5.72;;;15.90;92.70;;;;;;5053336;28;20031;-77
2021/08/10 03:01:24;;;;;;;9.82;5.80;;;15.90;92.70;;;;;;5052570;28;20408;-78
2021/08/10 03:03:52;;;;;;;10.05;5.85;;;15.80;92.70;;;;;;5051450;28;20036;-76
2021/08/10 03:06:18;;;;;;;9.95;5.68;;;15.80;92.70;;;;;;5052596;28;20025;-77
2021/08/10 03:08:47;;;;;;;12.15;6.82;;;15.80;92.80;;;;;;5048359;28;20529;-77
2021/08/10 03:11:13;;;;;;;7.82;5.35;;;15.80;93.10;;;;;;5038217;28;20532;-78
2021/08/10 03:13:42;;;;;;;12.65;6.90;;;15.80;92.80;;;;;;5065037;28;20025;-78
2021/08/10 03:16:08;;;;;;;11.10;4.88;;;15.80;92.80;;;;;;5069807;28;20017;-77
2021/08/10 03:18:36;;;;;;;8.05;5.28;;;15.70;92.50;;;;;;5061430;28;20199;-77
2021/08/10 03:21:03;;;;;;;11.70;5.95;;;15.70;92.60;;;;;;5053647;28;20469;-77
2021/08/10 03:23:35;;;;;;;13.98;6.68;;;15.70;92.70;;;;;;5034543;28;20035;-77
2021/08/10 03:26:02;;;;;;;8.07;4.82;;;15.70;92.70;;;;;;5034851;28;20024;-78
2021/08/10 03:28:29;;;;;;;11.60;5.28;;;15.70;92.70;;;;;;5052518;28;20021;-78
2021/08/10 03:30:58;;;;;;;13.10;6.40;;;15.70;92.80;;;;;;5034800;28;20362;-77
2021/08/10 03:33:26;;;;;;;8.80;5.97;;;15.70;92.80;;;;;;5034303;28;20028;-78
2021/08/10 03:35:52;;;;;;;8.90;4.47;;;15.70;92.80;;;;;;5035237;28;20021;-78
2021/08/10 03:38:19;;;;;;;9.95;6.07;;;15.70;92.80;;;;;;5052311;28;20017;-78
2021/08/10 03:40:45;;;;;;;14.70;6.63;;;15.60;92.80;;;;;;5052221;28;20483;-76
2021/08/10 03:43:10;;;;;;;8.77;5.25;;;15.60;92.90;;;;;;5034671;28;20087;-78
2021/08/10 03:45:37;;;;;;;9.60;5.72;;;15.60;92.80;;;;;;5052181;28;20025;-77
2021/08/10 03:48:04;;;;;;;8.90;5.32;;;15.60;92.80;;;;;;5034257;28;20032;-76
2021/08/10 03:50:30;;;;;;;9.93;5.30;;;15.60;92.80;;;;;;5034369;28;20465;-77
2021/08/10 03:52:56;;;;;;;10.40;5.65;;;15.60;92.80;;;;;;5034553;28;20048;-78
2021/08/10 03:55:22;;;;;;;7.60;4.93;;;15.60;92.80;;;;;;5034201;28;20049;-78
2021/08/10 03:57:49;;;;;;;12.18;5.90;;;15.60;92.80;;;;;;5034509;28;20083;-77
2021/08/10 04:00:16;;;;;;;8.93;5.32;;;15.60;92.80;;;;;;5052038;28;20021;-77
2021/08/10 04:02:43;;;;;;;7.90;4.80;;;15.50;92.80;;;;;;5052136;28;20033;-78
2021/08/10 04:05:10;;;;;;;9.05;5.72;;;15.50;92.80;;;;;;5033935;28;20055;-78
2021/08/10 04:07:38;;;;;;;10.90;4.65;;;15.50;92.80;;;;;;5034209;28;20032;-77
2021/08/10 04:10:04;;;;;;;10.82;6.20;;;15.50;92.80;;;;;;5035341;28;20153;-78
2021/08/10 04:12:30;;;;;;;12.85;6.18;;;15.50;92.80;;;;;;5053857;28;20059;-78
2021/08/10 04:14:56;;;;;;;9.52;4.85;;;15.50;92.90;;;;;;5057637;28;20028;-78
2021/08/10 04:17:25;;;;;;;8.05;5.53;;;15.40;92.90;;;;;;5051694;28;20381;-78
2021/08/10 04:19:53;;;;;;;18.67;6.20;;;15.50;93.00;;;;;;5050727;28;20144;-78
2021/08/10 04:22:20;;;;;;;10.45;4.90;;;15.50;93.00;;;;;;5051703;28;20025;-78
2021/08/10 04:24:46;;;;;;;9.05;4.57;;;15.50;92.90;;;;;;5054310;28;20174;-78
2021/08/10 04:27:13;;;;;;;12.40;5.30;;;15.40;92.90;;;;;;5055521;28;20485;-77
2021/08/10 04:29:39;;;;;;;10.43;4.97;;;15.40;93.00;;;;;;5056187;28;20023;-78
2021/08/10 04:32:06;;;;;;;9.80;5.57;;;15.40;93.00;;;;;;5056118;28;20424;-78
2021/08/10 04:34:32;;;;;;;10.00;5.05;;;15.40;93.00;;;;;;5054916;28;20024;-78
2021/08/10 04:36:58;;;;;;;9.75;5.65;;;15.40;93.00;;;;;;5037621;28;20108;-78
2021/08/10 04:39:26;;;;;;;14.00;5.07;;;15.30;93.10;;;;;;5055270;28;20108;-77
2021/08/10 04:41:52;;;;;;;10.95;5.10;;;15.40;93.10;;;;;;5054483;28;20424;-78
2021/08/10 04:44:18;;;;;;;10.05;5.18;;;15.30;93.10;;;;;;5041718;28;20017;-77
2021/08/10 04:46:43;;;;;;;11.20;6.07;;;15.40;93.10;;;;;;5062580;28;20024;-77
2021/08/10 04:49:09;;;;;;;9.38;5.43;;;15.30;93.20;;;;;;5058083;28;20370;-76
2021/08/10 04:51:35;;;;;;;12.77;5.45;;;15.30;93.20;;;;;;5050433;28;20064;-77
2021/08/10 04:54:00;;;;;;;10.18;5.45;;;15.30;93.20;;;;;;5037031;28;20025;-77
2021/08/10 04:56:26;;;;;;;12.77;5.70;;;15.30;93.30;;;;;;5048678;28;20142;-77
2021/08/10 04:58:51;;;;;;;7.40;4.53;;;15.30;93.30;;;;;;5037416;28;20526;-77
2021/08/10 05:01:17;;;;;;;11.25;6.40;;;15.40;93.30;;;;;;5061447;28;20039;-76
2021/08/10 05:03:44;;;;;;;9.93;5.30;;;15.30;93.30;;;;;;5050977;28;20025;-77
2021/08/10 05:06:09;;;;;;;15.35;6.78;;;15.40;93.30;;;;;;5052317;28;20528;-76
2021/08/10 05:08:35;;;;;;;9.85;5.70;;;15.40;93.30;;;;;;5045018;28;20017;-77
2021/08/10 05:11:01;;;;;;;10.43;5.38;;;15.40;93.30;;;;;;5055066;28;20078;-77
2021/08/10 05:13:27;;;;;;;11.18;5.88;;;15.40;93.20;;;;;;5054890;28;20025;-76
2021/08/10 05:15:53;;;;;;;13.68;6.25;;;15.30;93.30;;;;;;5054365;28;20434;-77
2021/08/10 05:18:19;;;;;;;10.10;5.72;;;15.40;93.30;;;;;;5036704;28;20045;-77
2021/08/10 05:20:44;;;;;;;10.27;5.57;;;15.40;93.50;;;;;;5053969;28;20078;-77
2021/08/10 05:23:10;;;;;;;9.27;5.38;;;15.40;93.20;;;;;;5054269;28;20033;-78
2021/08/10 05:25:35;;;;;;;12.00;5.45;;;15.40;93.20;;;;;;5054166;28;20222;-78
2021/08/10 05:28:01;;;;;;;10.52;5.35;;;15.50;93.20;;;;;;5054733;28;20056;-78
2021/08/10 05:30:26;;;;;;;12.18;5.40;;;15.50;93.20;;;;;;5047385;28;20062;-76
2021/08/10 05:32:52;;;;;;;9.10;4.68;;;15.50;93.10;;;;;;5053951;28;20100;-78
2021/08/10 05:35:18;;;;;;;10.75;5.82;;;15.50;93.00;;;;;;5035701;28;20032;-78
2021/08/10 05:37:43;;;;;;;10.43;5.15;;;15.50;93.10;;;;;;5052248;28;20116;-77
2021/08/10 05:40:09;;;;;;;7.75;5.18;;;15.50;93.00;;;;;;5054049;28;20037;-78
2021/08/10 05:42:35;;;;;;;10.35;5.88;;;15.60;92.90;;;;;;5054152;28;20036;-78
2021/08/10 05:45:00;;;;;;;9.45;4.97;;;15.60;93.00;;;;;;5053991;28;20078;-79
2021/08/10 05:47:26;;;;;;;9.65;5.47;;;15.70;93.00;;;;;;5036012;28;20071;-78
2021/08/10 05:49:51;;;;;;;9.32;5.13;;;15.70;92.90;;;;;;5036344;28;20450;-77
2021/08/10 05:52:17;;;;;;;10.20;6.15;;;15.80;92.90;;;;;;5052851;28;20086;-78
2021/08/10 05:54:43;;;;;;;10.00;4.50;;;15.90;93.10;;;;;;5053954;28;20017;-79
2021/08/10 05:57:08;;;;;;;9.82;4.53;;;15.90;92.60;;;;;;5054054;28;20025;-77
2021/08/10 05:59:34;;;;;;;10.00;5.13;;;16.00;92.60;;;;;;5035928;28;20025;-78
2021/08/10 06:02:00;;;;;;;9.32;4.68;;;16.00;92.40;;;;;;5035766;28;20033;-77
2021/08/10 06:04:26;;;;;;;7.00;4.38;;;16.10;92.40;;;;;;5035618;28;20048;-77
2021/08/10 06:06:52;;;;;;;9.77;5.13;;;16.20;92.40;;;;;;5052851;28;20029;-77
2021/08/10 06:09:18;;;;;;;9.25;5.13;;;16.20;92.30;;;;;;5053793;28;20025;-77
2021/08/10 06:11:44;;;;;;;9.05;4.85;;;16.30;92.20;;;;;;5035730;28;20029;-78
2021/08/10 06:14:09;;;;;;;9.27;4.95;;;16.40;92.20;;;;;;5025308;28;20035;-78
2021/08/10 06:16:35;;;;;;;10.43;5.90;;;16.40;92.00;;;;;;5039061;28;20017;-77
2021/08/10 06:19:04;;;;;;;9.10;5.68;;;16.50;91.80;;;;;;5043274;28;20025;-77
2021/08/10 06:21:30;;;;;;;9.27;5.05;;;16.50;91.80;;;;;;5053929;28;20453;-77
2021/08/10 06:23:56;;;;;;;8.82;5.35;;;16.60;91.80;;;;;;5053964;28;20096;-77
2021/08/10 06:26:22;;;;;;;8.70;5.32;;;16.70;91.70;;;;;;5026084;28;20104;-77
2021/08/10 06:28:48;;;;;;;8.93;4.63;;;16.80;91.00;;;;;;5055099;28;20100;-78
2021/08/10 06:31:13;;;;;;;9.65;4.88;;;16.90;91.10;;;;;;5053421;28;20035;-78
2021/08/10 06:33:39;;;;;;;9.77;5.25;;;17.00;90.90;;;;;;5056884;28;20025;-78
2021/08/10 06:36:05;;;;;;;8.98;4.72;;;17.20;91.00;;;;;;5055871;28;20024;-78
2021/08/10 06:38:32;;;;;;;8.82;4.28;;;17.30;90.40;;;;;;5027155;28;20025;-77
2021/08/10 06:40:58;;;;;;;10.85;5.53;;;17.20;88.40;;;;;;5028420;28;20700;-78
2021/08/10 06:43:24;;;;;;;13.07;6.07;;;17.10;90.10;;;;;;5057068;28;20515;-78
2021/08/10 06:45:50;;;;;;;10.52;4.78;;;17.10;90.00;;;;;;5020221;28;20480;-78
2021/08/10 06:48:15;;;;;;;8.60;4.93;;;17.10;89.90;;;;;;5040124;28;20021;-78
2021/08/10 06:50:41;;;;;;;9.43;5.78;;;17.10;90.30;;;;;;5055021;28;20036;-79
2021/08/10 06:53:07;;;;;;;8.63;4.05;;;17.10;90.70;;;;;;5059068;28;20029;-77
2021/08/10 06:55:32;;;;;;;9.93;5.18;;;17.10;90.50;;;;;;5043580;28;20036;-78
2021/08/10 06:57:59;;;;;;;11.10;5.55;;;17.10;90.60;;;;;;5038030;28;20020;-78
2021/08/10 07:00:25;;;;;;;15.85;6.75;;;17.20;90.40;;;;;;5025433;28;21126;-77
2021/08/10 07:02:50;;;;;;;7.97;4.78;;;17.20;90.20;;;;;;5046700;28;20066;-78
2021/08/10 07:05:16;;;;;;;7.85;4.30;;;17.20;90.00;;;;;;5030075;28;20038;-79
2021/08/10 07:07:42;;;;;;;9.73;5.35;;;17.20;89.20;;;;;;5033666;28;20025;-78
2021/08/10 07:10:08;;;;;;;12.05;5.93;;;17.20;89.90;;;;;;5052231;28;20036;-78
2021/08/10 07:12:34;;;;;;;10.43;6.10;;;17.30;90.10;;;;;;5050108;28;20017;-78
2021/08/10 07:14:59;;;;;;;9.77;5.45;;;17.30;88.90;;;;;;5032262;28;20027;-77
2021/08/10 07:17:25;;;;;;;9.77;4.82;;;17.40;89.40;;;;;;5015007;28;20386;-77
2021/08/10 07:19:50;;;;;;;11.25;6.07;;;17.50;88.80;;;;;;5014857;28;20069;-77
2021/08/10 07:22:16;;;;;;;11.18;5.53;;;17.60;89.10;;;;;;5014943;28;20389;-77
2021/08/10 07:24:42;;;;;;;10.20;6.03;;;17.70;87.60;;;;;;5033419;28;20025;-78
2021/08/10 07:27:07;;;;;;;12.95;6.57;;;18.00;88.00;;;;;;5019500;28;20089;-78
2021/08/10 07:29:33;;;;;;;10.93;6.35;;;18.00;86.60;;;;;;5038687;28;20025;-77
2021/08/10 07:31:59;;;;;;;10.02;5.57;;;18.20;87.40;;;;;;5016698;28;20057;-79
2021/08/10 07:34:24;;;;;;;14.45;6.75;;;18.30;86.80;;;;;;5014959;28;20022;-78
2021/08/10 07:36:50;;;;;;;12.80;6.05;;;18.40;85.40;;;;;;5015082;28;20021;-78
2021/08/10 07:39:16;;;;;;;11.95;6.82;;;18.30;84.60;;;;;;5015482;28;20022;-79
2021/08/10 07:41:42;;;;;;;11.07;5.75;;;18.20;85.00;;;;;;5014367;28;20026;-78
2021/08/10 07:44:07;;;;;;;10.80;5.97;;;18.20;84.80;;;;;;5032317;28;20108;-80
2021/08/10 07:46:33;;;;;;;8.30;4.97;;;18.20;83.50;;;;;;5014911;28;20026;-79
2021/08/10 07:49:00;;;;;;;10.02;6.68;;;18.40;82.10;;;;;;5014895;28;20041;-77
2021/08/10 07:51:26;;;;;;;10.18;5.22;;;18.50;82.40;;;;;;5014796;28;20454;-78
2021/08/10 07:53:52;;;;;;;12.60;5.55;;;18.50;82.90;;;;;;5015689;28;20120;-78
2021/08/10 07:56:17;;;;;;;8.88;4.85;;;18.50;82.50;;;;;;5033428;28;20061;-79
2021/08/10 07:58:43;;;;;;;11.27;6.13;;;18.50;82.10;;;;;;5015650;28;20029;-78
2021/08/10 08:01:09;;;;;;;8.98;3.35;;;18.50;82.20;;;;;;5036358;28;20037;-80
2021/08/10 08:03:35;;;;;;;9.90;4.63;;;18.30;81.80;;;;;;5036332;28;20458;-79
2021/08/10 08:06:01;;;;;;;11.20;5.63;;;18.40;82.50;;;;;;5018089;28;20433;-80
2021/08/10 08:08:28;;;;;;;9.27;3.97;;;18.50;82.50;;;;;;5036704;28;20025;-78
2021/08/10 08:10:54;;;;;;;8.77;4.82;;;18.80;81.30;;;;;;5036322;28;20393;-80
2021/08/10 08:13:20;;;;;;;6.22;3.70;;;19.20;81.30;;;;;;5035737;28;20071;-79
2021/08/10 08:15:46;;;;;;;12.75;6.13;;;19.30;79.30;;;;;;5038572;28;20021;-79
2021/08/10 08:18:12;;;;;;;10.80;5.53;;;19.50;79.60;;;;;;5019990;28;20044;-79
2021/08/10 08:20:37;;;;;;;11.48;4.03;;;19.60;78.80;;;;;;5031592;28;20164;-78
2021/08/10 08:23:03;;;;;;;12.85;5.97;;;19.60;77.70;;;;;;5052793;28;20029;-78
2021/08/10 08:25:29;;;;;;;13.30;5.47;;;19.60;77.90;;;;;;5036030;28;20089;-78
2021/08/10 08:27:54;;;;;;;11.25;5.47;;;19.50;78.20;;;;;;5035549;28;20044;-78
2021/08/10 08:30:20;;;;;;;11.15;5.70;;;19.50;78.00;;;;;;5035198;28;20470;-78
2021/08/10 08:32:46;;;;;;;10.50;5.65;;;19.60;78.70;;;;;;5034959;28;20017;-80
2021/08/10 08:35:12;;;;;;;11.07;5.32;;;19.70;79.40;;;;;;5035398;28;20025;-80
2021/08/10 08:37:39;;;;;;;12.82;5.40;;;19.90;77.50;;;;;;5036953;28;20409;-82
2021/08/10 08:40:05;;;;;;;9.98;3.88;;;20.10;76.70;;;;;;5035704;28;20444;-81
2021/08/10 08:42:31;;;;;;;10.20;4.00;;;20.30;75.40;;;;;;5041622;28;20026;-81
2021/08/10 08:44:57;;;;;;;11.35;4.35;;;20.50;75.50;;;;;;5053541;28;20048;-82
2021/08/10 08:47:23;;;;;;;10.20;4.63;;;20.50;74.80;;;;;;5054140;28;20025;-79
2021/08/10 08:49:49;;;;;;;6.75;3.10;;;20.50;74.00;;;;;;5028585;28;20108;-81
2021/08/10 08:52:17;;;;;;;9.70;4.85;;;20.50;74.50;;;;;;5036765;28;20069;-80
2021/08/10 08:54:43;;;;;;;6.07;3.42;;;20.40;74.90;;;;;;5034595;28;20377;-80
2021/08/10 08:57:09;;;;;;;9.25;4.10;;;20.40;75.50;;;;;;5035352;28;20035;-83
2021/08/10 08:59:39;;;;;;;6.97;3.50;;;20.50;75.00;;;;;;5036689;28;20112;-82
2021/08/10 09:02:05;;;;;;;7.32;2.97;;;20.50;74.50;;;;;;5034563;28;20061;-81
2021/08/10 09:04:30;;;;;;;6.60;2.65;;;20.60;74.00;;;;;;5039628;28;20029;-82
2021/08/10 09:06:56;;;;;;;6.53;3.20;;;20.50;74.50;;;;;;5055901;28;20053;-79
2021/08/10 09:09:25;;;;;;;9.45;3.53;;;20.40;73.30;;;;;;5038697;28;20040;-80
2021/08/10 09:12:16;;;;;;;8.00;3.20;;;20.50;74.90;;;;;;5037941;28;20055;-79
2021/08/10 09:14:52;;;;;;;6.60;2.53;;;20.80;73.20;;;;;;5047727;28;20040;-79
2021/08/10 09:17:20;;;;;;;7.53;2.70;;;20.90;73.00;;;;;;5037850;28;20022;-78
2021/08/10 09:19:54;;;;;;;6.53;3.15;;;20.70;73.00;;;;;;5038542;28;20025;-80
2021/08/10 09:22:27;;;;;;;6.38;3.58;;;20.60;73.30;;;;;;5038193;28;20033;-82
2021/08/10 09:24:56;;;;;;;5.30;2.70;;;20.50;73.30;;;;;;5056301;28;20513;-83
2021/08/10 09:27:41;;;;;;;5.43;2.50;;;20.50;74.20;;;;;;5038252;28;20464;-81
2021/08/10 09:30:15;;;;;;;8.98;3.38;;;20.40;74.80;;;;;;5037758;28;20400;-82
2021/08/10 09:33:12;;;;;;;8.05;2.80;;;20.30;74.50;;;;;;5037728;28;20079;-83
2021/08/10 09:35:38;;;;;;;6.45;2.50;;;20.20;75.10;;;;;;5037378;28;20017;-78
2021/08/10 09:38:17;;;;;;;6.55;3.40;;;20.10;75.80;;;;;;5054411;28;20555;-72
2021/08/10 09:40:45;;;;;;;7.70;3.95;;;20.00;75.40;;;;;;5053610;28;20470;-72
2021/08/10 09:43:26;;;;;;;6.60;3.40;;;20.00;75.80;;;;;;5054010;28;20369;-73
2021/08/10 09:46:10;;;;;;;9.00;3.63;;;20.00;75.80;;;;;;5035510;28;20013;-73
2021/08/10 09:48:37;;;;;;;6.82;3.25;;;20.00;75.60;;;;;;5035612;28;20033;-73
2021/08/10 09:51:13;;;;;;;9.65;3.45;;;20.00;75.90;;;;;;5053945;28;20477;-74
2021/08/10 09:53:39;;;;;;;5.05;2.30;;;20.00;76.00;;;;;;5053744;28;20021;-74
2021/08/10 09:56:05;;;;;;;7.03;3.28;;;20.00;76.60;;;;;;5053829;28;20108;-74
2021/08/10 09:58:51;;;;;;;7.88;2.83;;;19.90;76.80;;;;;;5053909;28;20059;-74
2021/08/10 10:01:37;;;;;;;7.97;3.00;;;19.80;77.00;;;;;;5053477;28;20115;-74
2021/08/10 10:04:14;;;;;;;6.47;2.97;;;19.80;77.50;;;;;;5053705;28;20025;-74
2021/08/10 10:06:40;;;;;;;8.98;3.00;;;19.80;77.60;;;;;;5054207;28;20086;-75
2021/08/10 10:09:06;;;;;;;7.90;3.50;;;19.90;77.60;;;;;;5057519;28;20025;-75
2021/08/10 10:11:37;;;;;;;6.72;2.95;;;20.00;77.50;;;;;;5059602;28;20036;-73
2021/08/10 10:14:03;;;;;;;6.53;2.95;;;20.10;77.50;;;;;;5055738;28;20509;-73
2021/08/10 10:16:30;;;;;;;7.40;3.13;;;20.10;77.10;;;;;;5047026;28;20074;-74
2021/08/10 10:19:02;;;;;;;6.65;2.75;;;20.20;77.00;;;;;;5053077;28;20465;-73
2021/08/10 10:21:28;;;;;;;8.82;3.65;;;20.20;76.60;;;;;;5052894;28;20082;-72
2021/08/10 10:23:57;;;;;;;6.70;2.33;;;20.20;76.40;;;;;;5052826;28;20179;-74
2021/08/10 10:26:25;;;;;;;8.27;2.53;;;20.20;75.80;;;;;;5054035;28;20021;-75
2021/08/10 10:28:51;;;;;;;5.65;2.33;;;20.30;75.70;;;;;;5035121;28;20354;-74
2021/08/10 10:31:17;;;;;;;5.50;2.40;;;20.30;75.60;;;;;;5055173;28;20028;-72
2021/08/10 10:33:44;;;;;;;7.80;3.15;;;20.30;75.40;;;;;;5065829;28;20009;-73
2021/08/10 10:36:11;;;;;;;7.43;3.05;;;20.30;73.30;;;;;;5058858;28;20032;-74
2021/08/10 10:38:40;;;;;;;7.10;2.58;;;20.20;73.80;;;;;;5056066;28;20029;-74
2021/08/10 10:41:08;;;;;;;6.53;3.17;;;20.40;74.10;;;;;;5053194;28;20111;-74
2021/08/10 10:43:34;;;;;;;5.70;2.83;;;20.80;73.90;;;;;;5053173;28;20048;-74
2021/08/10 10:46:24;;;;;;;7.78;2.90;;;21.30;73.00;;;;;;5052573;28;20418;-73
2021/08/10 10:48:49;;;;;;;5.83;2.80;;;21.70;71.10;;;;;;5052606;28;20074;-73
2021/08/10 10:51:23;;;;;;;5.55;2.33;;;22.00;68.80;;;;;;5034878;28;20025;-75
2021/08/10 10:53:49;;;;;;;7.22;2.75;;;22.40;68.40;;;;;;5052354;28;20056;-74
2021/08/10 10:56:26;;;;;;;7.25;3.58;;;22.60;67.80;;;;;;5052450;28;20060;-74
2021/08/10 10:58:53;;;;;;;10.52;3.70;;;22.80;66.80;;;;;;5034317;28;20021;-74
2021/08/10 11:01:22;;;;;;;6.55;2.50;;;23.00;65.70;;;;;;5052322;28;20099;-74
2021/08/10 11:04:08;;;;;;;9.40;3.60;;;23.10;65.90;;;;;;5052032;28;20347;-74
2021/08/10 11:06:47;;;;;;;9.27;3.13;;;23.50;63.50;;;;;;5052496;28;20039;-73
2021/08/10 11:09:38;;;;;;;11.70;3.58;;;23.80;62.90;;;;;;5052494;28;20032;-74
2021/08/10 11:12:25;;;;;;;7.40;2.95;;;23.90;62.50;;;;;;5052172;28;20096;-74
2021/08/10 11:14:50;;;;;;;10.65;3.33;;;24.00;61.30;;;;;;5051777;28;20056;-74
2021/08/10 11:17:18;;;;;;;7.70;3.15;;;23.80;60.30;;;;;;5051926;28;20056;-74
2021/08/10 11:19:47;;;;;;;6.05;2.47;;;24.00;63.00;;;;;;5052044;28;20466;-74
2021/08/10 11:22:15;;;;;;;5.60;2.80;;;24.00;63.00;;;;;;5052218;28;20029;-74
2021/08/10 11:24:45;;;;;;;6.50;3.42;;;23.90;61.40;;;;;;5052190;28;20059;-74
2021/08/10 11:27:43;;;;;;;9.57;3.20;;;24.00;61.80;;;;;;5052332;28;20064;-75
2021/08/10 11:30:30;;;;;;;8.52;2.83;;;24.00;61.20;;;;;;5032100;28;20466;-74
2021/08/10 11:32:56;;;;;;;8.63;2.95;;;23.80;61.20;;;;;;5052148;28;20364;-74
2021/08/10 11:35:38;;;;;;;7.65;4.00;;;23.50;61.50;;;;;;5056534;28;20214;-75
2021/08/10 11:38:15;;;;;;;6.30;3.30;;;23.30;58.80;;;;;;5056043;28;20475;-75
2021/08/10 11:41:02;;;;;;;8.30;2.85;;;22.90;63.90;;;;;;5038480;28;20419;-74
2021/08/10 11:43:49;;;;;;;6.65;3.20;;;22.80;64.30;;;;;;5056209;28;20021;-74
2021/08/10 11:46:27;;;;;;;9.23;4.38;;;22.70;61.20;;;;;;5055990;28;20021;-75
2021/08/10 11:49:07;;;;;;;6.68;3.13;;;22.60;61.80;;;;;;5055814;28;20127;-74
2021/08/10 11:51:40;;;;;;;5.47;2.70;;;22.40;62.90;;;;;;5055864;28;20025;-74
2021/08/10 11:54:18;;;;;;;6.45;2.75;;;22.40;64.30;;;;;;5037545;28;20029;-75
2021/08/10 11:56:48;;;;;;;6.40;2.88;;;22.40;64.90;;;;;;5055700;28;20079;-75
2021/08/10 11:59:15;;;;;;;7.78;3.08;;;22.60;65.40;;;;;;5055630;28;20626;-76
2021/08/10 12:01:41;;;;;;;7.53;3.20;;;22.90;65.10;;;;;;5055798;28;20035;-74
2021/08/10 12:04:18;;;;;;;6.57;2.67;;;23.10;64.70;;;;;;5055062;28;20021;-73
2021/08/10 12:06:47;;;;;;;6.90;2.85;;;23.20;64.30;;;;;;5037806;28;20027;-75
2021/08/10 12:09:18;;;;;;;7.93;4.00;;;23.30;63.30;;;;;;5055857;28;20025;-75
2021/08/10 12:11:50;;;;;;;9.90;4.05;;;23.30;62.30;;;;;;5055373;28;20458;-75
2021/08/10 12:14:18;;;;;;;9.40;3.53;;;23.30;61.30;;;;;;5055223;28;20354;-75
2021/08/10 12:16:58;;;;;;;8.65;3.80;;;23.30;61.20;;;;;;5055780;28;20049;-75
2021/08/10 12:19:44;;;;;;;8.52;3.53;;;23.60;60.50;;;;;;5055383;28;20381;-73
2021/08/10 12:22:20;;;;;;;6.22;2.75;;;23.70;59.80;;;;;;5065074;28;20032;-73
2021/08/10 12:24:50;;;;;;;6.28;2.92;;;23.50;62.30;;;;;;5068468;28;20052;-74
2021/08/10 12:27:17;;;;;;;7.78;3.28;;;23.30;59.30;;;;;;5059836;28;20099;-75
2021/08/10 12:29:48;;;;;;;6.43;2.42;;;23.20;59.70;;;;;;5054193;28;20025;-74
2021/08/10 12:32:22;;;;;;;7.18;3.03;;;23.40;61.90;;;;;;5055259;28;20056;-75
2021/08/10 12:34:48;;;;;;;8.60;3.10;;;23.40;64.00;;;;;;5054658;28;20054;-74
2021/08/10 12:37:14;;;;;;;7.53;3.13;;;23.60;61.80;;;;;;5037139;28;20029;-74
2021/08/10 12:39:41;;;;;;;7.80;3.90;;;23.80;63.60;;;;;;5054981;28;20392;-74
2021/08/10 12:42:08;;;;;;;5.63;2.85;;;23.90;60.80;;;;;;5036799;28;20029;-74
2021/08/10 12:44:34;;;;;;;8.38;3.20;;;24.10;61.10;;;;;;5036723;28;20488;-74
2021/08/10 12:47:04;;;;;;;8.15;3.38;;;24.10;59.30;;;;;;5054972;28;20029;-74
2021/08/10 12:49:38;;;;;;;5.88;2.83;;;24.00;60.20;;;;;;5055932;28;20029;-76
2021/08/10 12:52:10;;;;;;;7.55;3.40;;;24.20;61.60;;;;;;5060636;28;20056;-74